Latest Weather Observations for Bendigo

IDV60801

Issued at 9:02 pm EDT Friday 27 March 2015 (issued every 30 minutes, with the page automatically refreshed every 10 minutes)

About weather observations | Map of weather stations | Latest weather observations for VIC | Other Formats
Station Details ID: 081123 Name: BENDIGO AIRPORT Lat: -36.74 Lon: 144.33 Height: 208.0 m
Data from the previous 72 hours. | See also: Recent months at Bendigo
Date/Time
EDT
Temp
°C
App
Temp
°C
Dew
Point
Rel
Hum
%
Delta-T
°C
Wind Press
QNH
hPa
Press
MSL
hPa
Rain
since 9 am
mm
Dir
 
Spd
km/h
Gust
km/h
Spd
kts
Gust
kts
27/09:00pm 14.7 12.0 5.8 55 4.3 SSW 9 13 5 7 1024.7 1024.2 0.0
27/08:30pm 14.1 11.0 5.5 56 4.1 SSW 11 17 6 9 1024.4 1023.9 0.0
27/08:00pm 14.2 10.6 4.8 53 4.4 SSW 13 20 7 11 1024.1 1023.6 0.0
27/07:30pm 14.9 11.2 4.6 50 4.8 SSW 13 20 7 11 1023.8 1023.3 0.0
27/07:00pm 15.6 11.1 4.3 47 5.3 SSW 17 24 9 13 1023.7 1023.2 0.0
27/06:30pm 16.5 11.7 4.5 45 5.7 SSW 19 28 10 15 1023.4 1022.9 0.0
27/06:00pm 16.9 11.1 4.6 44 5.9 SW 24 33 13 18 1023.1 1022.6 0.0
27/05:30pm 18.1 12.4 4.7 41 6.5 SW 24 33 13 18 1022.9 1022.3 0.0
27/05:00pm 18.5 13.2 5.0 41 6.6 SW 22 37 12 20 1022.8 1022.2 0.0
27/04:30pm 18.6 13.8 4.8 40 6.7 WSW 19 32 10 17 1022.9 1022.3 0.0
27/04:00pm 17.5 12.4 6.1 47 5.6 SSW 22 33 12 18 1023.0 1022.5 0.0
27/03:30pm 18.4 13.1 6.6 46 5.9 WSW 24 35 13 19 1023.3 1022.8 0.0
27/03:00pm 17.4 12.2 5.7 46 5.7 SW 22 33 12 18 1023.3 1022.8 0.0
27/02:30pm 16.9 12.3 6.7 51 5.1 SW 20 30 11 16 1023.7 1023.2 0.0
27/02:00pm 17.0 13.0 6.5 50 5.2 SW 17 24 9 13 1023.9 1023.4 0.0
27/01:30pm 16.5 11.9 6.3 51 5.0 SW 20 30 11 16 1024.3 1023.8 0.0
27/01:00pm 16.2 11.9 7.7 57 4.3 SSW 20 33 11 18 1024.7 1024.2 0.0
27/12:30pm 15.5 9.8 6.8 56 4.3 SW 26 41 14 22 1024.9 1024.4 0.0
27/12:00pm 15.8 11.4 7.6 58 4.1 WSW 20 32 11 17 1025.1 1024.6 0.0
27/11:30am 14.6 10.2 7.6 63 3.5 SW 20 33 11 18 1025.1 1024.6 0.0
27/11:00am 14.4 10.1 7.7 64 3.3 SW 20 32 11 17 1025.1 1024.6 0.0
27/10:30am 13.7 8.9 7.5 66 3.1 WSW 22 32 12 17 1024.9 1024.4 0.0
27/10:00am 14.0 8.9 7.8 66 3.1 SW 24 37 13 20 1024.5 1024.0 0.0
27/09:30am 12.8 7.7 7.7 71 2.5 WSW 24 35 13 19 1024.4 1023.9 0.0
27/09:00am 12.6 8.4 8.3 75 2.1 WSW 20 30 11 16 1024.1 1023.6 0.0
27/08:30am 11.8 8.6 8.6 81 1.6 WSW 15 24 8 13 1023.8 1023.3 0.0
27/08:00am 10.6 10.1 9.2 91 0.7 WNW 2 9 1 5 1023.6 1023.1 0.0
27/07:30am 10.1 8.5 8.7 91 0.7 WSW 7 9 4 5 1023.3 1022.8 0.0
27/07:00am 10.3 8.3 8.7 90 0.8 WSW 9 15 5 8 1023.0 1022.5 0.0
27/06:30am 10.5 8.6 8.9 90 0.8 W 9 13 5 7 1022.8 1022.2 0.0
27/06:00am 10.9 8.2 9.0 88 0.9 W 13 17 7 9 1022.4 1021.8 0.0
27/05:30am 11.3 8.3 9.2 87 1.1 WSW 15 22 8 12 1022.2 1021.6 0.0
27/05:00am 11.6 7.8 9.2 85 1.2 W 19 28 10 15 1022.1 1021.5 0.0
27/04:30am 11.6 8.2 9.3 86 1.2 WSW 17 24 9 13 1022.0 1021.4 0.0
27/04:00am 11.5 8.5 9.2 86 1.2 W 15 26 8 14 1022.1 1021.5 0.0
27/03:30am 11.4 8.0 9.1 86 1.2 WNW 17 20 9 11 1022.1 1021.5 0.0
27/03:00am 11.4 8.0 9.3 87 1.1 WNW 17 24 9 13 1022.1 1021.5 0.0
27/02:30am 11.3 8.7 9.4 88 1.0 WNW 13 20 7 11 1022.2 1021.6 0.0
27/02:00am 11.9 8.5 9.1 83 1.4 WNW 17 24 9 13 1022.2 1021.6 0.0
27/01:30am 11.8 8.6 8.5 80 1.6 WNW 15 24 8 13 1022.0 1021.4 0.0
27/01:00am 12.1 8.8 8.2 77 1.9 W 15 20 8 11 1021.9 1021.3 0.0
27/12:30am 12.1 8.1 8.2 77 1.9 WNW 19 35 10 19 1021.7 1021.2 0.0
27/12:14am 12.0 8.4 8.5 79 1.8 WNW 17 26 9 14 1021.6 1021.1 0.0
27/12:00am 11.8 7.7 8.5 80 1.6 WNW 20 33 11 18 1021.7 1021.2 0.0
 
Date/Time
EDT
Temp
°C
App
Temp
°C
Dew
Point
Rel
Hum
%
Delta-T
°C
Wind Press
QNH
hPa
Press
MSL
hPa
Rain
since 9 am
mm
Dir
 
Spd
km/h
Gust
km/h
Spd
kts
Gust
kts
26/11:58pm 11.9 7.7 8.4 79 1.7 WNW 20 33 11 18 1021.7 1021.2 0.0
26/11:30pm 13.0 8.2 7.2 68 2.8 WNW 22 37 12 20 1021.6 1021.1 0.0
26/11:00pm 13.2 8.3 7.0 66 3.0 WNW 22 33 12 18 1021.5 1021.0 0.0
26/10:35pm 13.3 7.3 7.1 66 3.0 WNW 28 48 15 26 1021.3 1020.8 0.0
26/10:30pm 13.4 8.1 6.7 64 3.3 WNW 24 35 13 19 1021.3 1020.8 0.0
26/10:00pm 13.6 8.3 6.7 63 3.4 WNW 24 37 13 20 1021.0 1020.5 0.0
26/09:30pm 14.0 7.8 6.1 59 3.8 WNW 28 44 15 24 1020.7 1020.2 0.0
26/09:14pm 14.2 8.0 6.1 58 3.9 WNW 28 46 15 25 1020.7 1020.2 0.0
26/09:00pm 14.3 7.3 5.9 57 4.0 WNW 32 46 17 25 1020.5 1020.0 0.0
26/08:30pm 14.6 9.0 5.4 54 4.4 WNW 24 41 13 22 1020.2 1019.7 0.0
26/08:00pm 14.8 8.4 5.1 52 4.6 W 28 48 15 26 1020.0 1019.5 0.0
26/07:30pm 14.8 8.7 4.8 51 4.7 WNW 26 41 14 22 1019.7 1019.2 0.0
26/07:00pm 15.3 8.3 4.1 47 5.2 W 30 48 16 26 1019.4 1018.9 0.0
26/06:41pm 15.5 8.1 3.9 46 5.4 WNW 32 50 17 27 1019.2 1018.7 0.0
26/06:30pm 15.7 8.6 3.5 44 5.6 WNW 30 46 16 25 1019.2 1018.7 0.0
26/06:00pm 16.2 8.6 2.9 41 6.1 WNW 32 52 17 28 1018.7 1018.1 0.0
26/05:50pm 16.2 8.4 2.9 41 6.1 WNW 33 52 18 28 1018.8 1018.3 0.0
26/05:30pm 16.5 9.2 2.2 38 6.5 WNW 30 46 16 25 1018.6 1018.0 0.0
26/05:00pm 16.4 8.6 1.7 37 6.6 WNW 32 50 17 27 1018.5 1017.9 0.0
26/04:30pm 16.1 9.0 1.4 37 6.5 WNW 28 48 15 26 1018.8 1018.3 0.0
26/04:02pm 16.5 9.3 0.6 34 7.0 WNW 28 46 15 25 1018.7 1018.1 0.0
26/04:00pm 16.9 9.4 1.0 34 7.0 W 30 44 16 24 1018.7 1018.1 0.0
26/03:30pm 16.7 8.5 0.4 33 7.1 W 33 46 18 25 1018.7 1018.1 0.0
26/03:00pm 17.2 8.2 0.4 32 7.4 WNW 37 59 20 32 1018.8 1018.3 0.0
26/02:32pm 15.5 7.9 0.5 36 6.5 WNW 30 48 16 26 1019.0 1018.5 0.0
26/02:30pm 15.6 8.0 0.6 36 6.5 WNW 30 41 16 22 1019.0 1018.5 0.0
26/02:00pm 14.8 6.9 1.3 40 5.9 W 32 46 17 25 1019.5 1019.0 0.0
26/01:37pm 16.5 8.6 1.0 35 6.9 WNW 32 52 17 28 1019.5 1019.0 0.0
26/01:30pm 15.3 7.3 0.3 36 6.5 WNW 32 44 17 24 1019.6 1019.1 0.0
26/01:18pm 16.4 9.5 2.4 39 6.4 WNW 28 46 15 25 1019.7 1019.2 0.0
26/01:00pm 15.5 8.9 2.3 41 5.9 W 26 43 14 23 1019.8 1019.3 0.0
26/12:30pm 15.3 8.9 3.1 44 5.6 WNW 26 37 14 20 1020.2 1019.7 0.0
26/12:00pm 14.2 8.6 3.4 48 4.9 WNW 22 33 12 18 1020.4 1019.9 0.0
26/11:30am 13.7 8.7 3.5 50 4.6 WNW 19 32 10 17 1020.3 1019.8 0.0
26/11:00am 13.2 8.0 3.8 53 4.3 W 20 32 11 17 1020.3 1019.8 0.0
26/10:30am 12.1 6.7 4.3 59 3.6 WNW 22 32 12 17 1020.2 1019.7 0.0
26/10:00am 11.3 6.6 5.2 66 2.8 WNW 19 24 10 13 1020.0 1019.5 0.0
26/09:30am 10.5 6.0 6.1 74 2.1 W 19 26 10 14 1019.9 1019.4 0.0
26/09:00am 9.2 5.0 5.8 79 1.6 WNW 17 24 9 13 1019.7 1019.2 0.0
26/08:30am 8.6 5.6 6.1 84 1.2 WNW 11 17 6 9 1019.3 1018.8 0.0
26/08:00am 7.4 5.1 5.5 88 0.9 NW 7 9 4 5 1018.9 1018.4 0.0
26/07:30am 7.3 4.9 5.4 88 0.9 NNW 7 11 4 6 1018.6 1018.0 0.0
26/07:21am 7.6 5.5 5.6 87 0.9 NW 6 9 3 5 1018.5 1017.9 0.0
26/07:00am 8.0 5.7 5.8 86 1.0 NNW 7 13 4 7 1018.2 1017.6 0.0
26/06:45am 7.9 6.5 5.7 86 1.0 NNW 2 7 1 4 1018.1 1017.5 0.0
26/06:30am 8.0 5.3 5.8 86 1.0 NW 9 13 5 7 1017.9 1017.3 0.0
26/06:00am 8.4 5.4 6.0 85 1.1 W 11 15 6 8 1017.7 1017.1 0.0
26/05:30am 8.7 4.9 6.0 83 1.2 WNW 15 22 8 12 1017.3 1016.7 0.0
26/05:00am 9.2 5.4 5.9 80 1.5 WNW 15 26 8 14 1017.1 1016.5 0.0
26/04:30am 10.2 6.0 5.8 74 2.0 W 17 24 9 13 1016.7 1016.2 0.0
26/04:00am 10.3 6.8 5.5 72 2.2 W 13 19 7 10 1016.4 1015.9 0.0
26/03:30am 10.8 7.0 5.6 70 2.4 W 15 20 8 11 1016.3 1015.8 0.0
26/03:00am 11.3 6.9 4.7 64 3.0 W 17 26 9 14 1016.3 1015.8 0.0
26/02:30am 11.9 7.0 5.3 64 3.1 WSW 20 32 11 17 1016.6 1016.1 0.0
26/02:00am 12.2 6.4 6.3 67 2.8 SW 26 39 14 21 1016.7 1016.2 0.0
26/01:38am 13.0 6.1 6.4 64 3.2 W 32 56 17 30 1016.0 1015.5 0.0
26/01:35am 13.5 7.4 6.6 63 3.4 W 28 56 15 30 1015.9 1015.4 0.0
26/01:30am 14.1 9.5 6.7 61 3.6 WNW 20 39 11 21 1015.8 1015.3 0.0
26/01:00am 13.1 9.4 2.1 47 4.8 NNW 11 19 6 10 1015.7 1015.2 0.0
26/12:30am 13.1 8.9 1.8 46 4.9 N 13 17 7 9 1015.2 1014.7 0.0
26/12:00am 9.9 8.2 2.0 58 3.4 CALM 0 0 0 0 1015.7 1015.2 0.0
 
Date/Time
EDT
Temp
°C
App
Temp
°C
Dew
Point
Rel
Hum
%
Delta-T
°C
Wind Press
QNH
hPa
Press
MSL
hPa
Rain
since 9 am
mm
Dir
 
Spd
km/h
Gust
km/h
Spd
kts
Gust
kts
25/11:30pm 7.5 5.7 0.9 63 2.7 CALM 0 0 0 0 1015.9 1015.4 0.0
25/11:00pm 7.8 5.9 0.5 60 2.9 CALM 0 0 0 0 1015.8 1015.3 0.0
25/10:30pm 8.4 6.5 0.6 58 3.2 CALM 0 0 0 0 1015.7 1015.2 0.0
25/10:00pm 8.3 6.4 0.3 57 3.2 CALM 0 0 0 0 1015.8 1015.3 0.0
25/09:30pm 9.6 7.7 0.5 53 3.7 CALM 0 0 0 0 1015.8 1015.3 0.0
25/09:00pm 11.8 9.1 0.3 45 4.8 N 4 6 2 3 1015.6 1015.1 0.0
25/08:30pm 14.2 11.3 1.2 41 5.7 NNW 6 9 3 5 1015.6 1015.1 0.0
25/08:00pm 15.0 11.4 0.8 38 6.2 NW 9 13 5 7 1015.5 1015.0 0.0
25/07:30pm 16.2 11.4 0.3 34 6.9 WNW 15 24 8 13 1015.3 1014.8 0.0
25/07:00pm 17.2 11.7 0.4 32 7.4 NW 19 32 10 17 1015.1 1014.6 0.0
25/06:30pm 18.4 12.8 1.0 31 7.8 WNW 20 32 11 17 1014.6 1014.1 0.0
25/06:00pm 19.2 13.7 1.7 31 8.0 WNW 20 33 11 18 1014.3 1013.7 0.0
25/05:30pm 20.0 14.6 2.4 31 8.2 NNW 20 33 11 18 1014.1 1013.5 0.0
25/05:00pm 19.7 13.9 2.1 31 8.2 NNW 22 39 12 21 1014.0 1013.4 0.0
25/04:30pm 20.3 14.7 3.5 33 8.1 NNW 22 32 12 17 1014.2 1013.6 0.0
25/04:00pm 20.7 15.6 4.3 34 8.0 NW 20 30 11 16 1014.4 1013.8 0.0
25/03:30pm 20.1 15.6 4.2 35 7.7 NNW 17 30 9 16 1014.4 1013.8 0.0
25/03:00pm 19.4 15.1 5.1 39 7.0 NNW 17 24 9 13 1014.7 1014.2 0.0
25/02:30pm 19.4 15.9 5.5 40 6.9 N 13 22 7 12 1015.2 1014.7 0.0
25/02:00pm 18.9 15.5 6.1 43 6.4 NW 13 22 7 12 1015.6 1015.1 0.0
25/01:30pm 18.6 14.9 6.4 45 6.1 WNW 15 20 8 11 1016.3 1015.8 0.0
25/01:00pm 18.0 15.2 6.8 48 5.6 NW 11 20 6 11 1017.1 1016.5 0.0
25/12:30pm 17.0 14.6 7.1 52 5.0 NNW 9 17 5 9 1017.0 1016.4 0.0
25/12:00pm 16.2 14.3 6.6 53 4.7 NE 6 13 3 7 1017.4 1016.8 0.0
25/11:30am 15.7 13.2 6.7 55 4.5 ENE 9 13 5 7 1017.9 1017.3 0.0
25/11:00am 14.8 12.9 6.6 58 4.0 E 6 11 3 6 1018.2 1017.6 0.0
25/10:30am 13.9 11.7 6.3 60 3.7 W 7 13 4 7 1018.5 1017.9 0.0
25/10:00am 12.7 10.0 5.8 63 3.3 SSW 9 11 5 6 1018.6 1018.0 0.0
25/09:30am 12.1 9.1 6.2 67 2.8 SW 11 17 6 9 1018.2 1017.6 0.0
25/09:00am 10.5 7.8 5.7 72 2.2 WSW 9 11 5 6 1018.3 1017.7 0.0
25/08:30am 8.2 6.5 5.7 84 1.1 SW 4 7 2 4 1018.0 1017.4 0.0
25/08:00am 6.4 5.1 4.2 86 1.0 CALM 0 2 0 1 1017.9 1017.3 0.0
25/07:30am 7.3 5.0 4.6 83 1.2 SW 6 7 3 4 1017.7 1017.1 0.0
25/07:00am 7.0 4.9 4.1 82 1.3 SW 4 7 2 4 1017.7 1017.1 0.0
25/06:30am 8.1 4.8 4.7 79 1.5 WSW 11 13 6 7 1017.6 1017.0 0.0
25/06:00am 7.7 5.4 4.8 82 1.3 WSW 6 9 3 5 1017.0 1016.4 0.0
25/05:30am 6.9 4.4 4.6 85 1.0 SW 7 11 4 6 1017.0 1016.4 0.0
25/05:00am 6.8 3.8 4.1 83 1.2 SW 9 11 5 6 1017.2 1016.6 0.0
25/04:30am 7.9 5.4 5.0 82 1.3 SW 7 11 4 6 1017.2 1016.6 0.0
25/04:00am 6.8 4.2 4.1 83 1.2 SW 7 9 4 5 1017.4 1016.8 0.0
25/03:30am 6.5 4.8 3.8 83 1.2 SSW 2 7 1 4 1017.4 1016.8 0.0
25/03:00am 7.9 5.4 4.8 81 1.4 SSW 7 11 4 6 1017.5 1016.9 0.0
25/02:30am 8.5 6.1 5.1 79 1.5 WSW 7 11 4 6 1018.4 1017.8 0.0
25/02:00am 8.6 6.3 5.0 78 1.6 SSW 6 13 3 7 1018.5 1017.9 0.0
25/01:30am 8.8 6.1 5.4 79 1.6 SSW 9 13 5 7 1018.5 1017.9 0.0
25/01:00am 9.5 6.8 5.7 77 1.8 SSW 9 13 5 7 1018.8 1018.3 0.0
25/12:30am 9.6 6.5 5.4 75 1.9 SSW 11 17 6 9 1018.8 1018.3 0.0
25/12:00am 10.2 6.4 5.6 73 2.1 S 15 24 8 13 1018.8 1018.3 0.0
 
Date/Time
EDT
Temp
°C
App
Temp
°C
Dew
Point
Rel
Hum
%
Delta-T
°C
Wind Press
QNH
hPa
Press
MSL
hPa
Rain
since 9 am
mm
Dir
 
Spd
km/h
Gust
km/h
Spd
kts
Gust
kts
24/11:30pm 10.4 6.9 5.6 72 2.2 S 13 17 7 9 1019.0 1018.5 0.0
24/11:00pm 11.2 8.2 5.9 70 2.5 S 11 17 6 9 1019.5 1019.0 0.0
24/10:30pm 11.4 7.2 5.9 69 2.6 S 17 24 9 13 1019.3 1018.8 0.0
24/10:00pm 11.7 7.2 6.2 69 2.6 S 19 26 10 14 1019.3 1018.8 0.0
24/09:30pm 12.1 7.4 6.2 67 2.8 S 20 32 11 17 1019.4 1018.9 0.0

Other Formats:

Comma delimited format used in spreadsheet applications
http://www.bom.gov.au/fwo/IDV60801/IDV60801.94855.axf

JavaScript Object Notation format (JSON) in row-major order
http://www.bom.gov.au/fwo/IDV60801/IDV60801.94855.json